sensor_id;sensor_type;location;lat;lon;timestamp;temperature;humidity
15991;DHT22;8100;50.994;4.538;2023-07-13T00:00:52;16.00;1.00
15991;DHT22;8100;50.994;4.538;2023-07-13T00:03:39;15.90;1.00
15991;DHT22;8100;50.994;4.538;2023-07-13T00:06:27;16.00;1.00
15991;DHT22;8100;50.994;4.538;2023-07-13T00:09:17;15.90;1.00
15991;DHT22;8100;50.994;4.538;2023-07-13T00:12:19;15.90;1.00
15991;DHT22;8100;50.994;4.538;2023-07-13T00:15:13;15.90;1.00
15991;DHT22;8100;50.994;4.538;2023-07-13T00:18:02;15.90;1.00
15991;DHT22;8100;50.994;4.538;2023-07-13T00:20:49;15.90;1.00
15991;DHT22;8100;50.994;4.538;2023-07-13T00:23:39;15.80;1.00
15991;DHT22;8100;50.994;4.538;2023-07-13T00:26:27;15.80;1.00
15991;DHT22;8100;50.994;4.538;2023-07-13T00:29:14;15.70;1.00
15991;DHT22;8100;50.994;4.538;2023-07-13T00:32:04;15.60;1.00
15991;DHT22;8100;50.994;4.538;2023-07-13T00:34:51;15.60;1.00
15991;DHT22;8100;50.994;4.538;2023-07-13T00:37:39;15.50;1.00
15991;DHT22;8100;50.994;4.538;2023-07-13T00:40:26;15.60;1.00
15991;DHT22;8100;50.994;4.538;2023-07-13T00:43:19;15.60;1.00
15991;DHT22;8100;50.994;4.538;2023-07-13T00:46:25;15.60;1.00
15991;DHT22;8100;50.994;4.538;2023-07-13T00:49:18;15.60;1.00
15991;DHT22;8100;50.994;4.538;2023-07-13T00:52:07;15.70;1.00
15991;DHT22;8100;50.994;4.538;2023-07-13T00:54:56;15.60;1.00
15991;DHT22;8100;50.994;4.538;2023-07-13T00:57:44;15.60;1.00
15991;DHT22;8100;50.994;4.538;2023-07-13T01:00:31;15.50;17.20
15991;DHT22;8100;50.994;4.538;2023-07-13T01:03:20;15.40;32.00
15991;DHT22;8100;50.994;4.538;2023-07-13T01:06:09;15.40;40.60
15991;DHT22;8100;50.994;4.538;2023-07-13T01:08:58;15.30;65.50
15991;DHT22;8100;50.994;4.538;2023-07-13T01:11:46;15.30;72.50
15991;DHT22;8100;50.994;4.538;2023-07-13T01:14:33;15.30;69.40
15991;DHT22;8100;50.994;4.538;2023-07-13T01:17:20;15.30;71.00
15991;DHT22;8100;50.994;4.538;2023-07-13T01:20:08;15.30;61.50
15991;DHT22;8100;50.994;4.538;2023-07-13T01:22:57;15.30;71.80
15991;DHT22;8100;50.994;4.538;2023-07-13T01:25:45;15.20;82.70
15991;DHT22;8100;50.994;4.538;2023-07-13T01:28:33;15.20;99.90
15991;DHT22;8100;50.994;4.538;2023-07-13T01:31:22;15.10;99.90
15991;DHT22;8100;50.994;4.538;2023-07-13T01:34:10;15.00;99.90
15991;DHT22;8100;50.994;4.538;2023-07-13T01:36:57;15.00;99.90
15991;DHT22;8100;50.994;4.538;2023-07-13T01:39:46;15.00;99.90
15991;DHT22;8100;50.994;4.538;2023-07-13T01:42:33;14.90;99.90
15991;DHT22;8100;50.994;4.538;2023-07-13T01:45:20;15.00;99.90
15991;DHT22;8100;50.994;4.538;2023-07-13T01:48:08;14.90;99.90
15991;DHT22;8100;50.994;4.538;2023-07-13T01:50:55;14.90;99.90
15991;DHT22;8100;50.994;4.538;2023-07-13T01:53:42;14.80;99.90
15991;DHT22;8100;50.994;4.538;2023-07-13T01:56:31;14.90;99.90
15991;DHT22;8100;50.994;4.538;2023-07-13T01:59:18;14.80;99.90
15991;DHT22;8100;50.994;4.538;2023-07-13T02:02:05;14.90;99.90
15991;DHT22;8100;50.994;4.538;2023-07-13T02:04:52;14.90;99.90
15991;DHT22;8100;50.994;4.538;2023-07-13T02:07:40;15.00;99.90
15991;DHT22;8100;50.994;4.538;2023-07-13T02:10:27;15.00;99.90
15991;DHT22;8100;50.994;4.538;2023-07-13T02:13:16;15.20;99.90
15991;DHT22;8100;50.994;4.538;2023-07-13T02:16:03;15.20;99.90
15991;DHT22;8100;50.994;4.538;2023-07-13T02:18:52;15.30;99.90
15991;DHT22;8100;50.994;4.538;2023-07-13T02:21:41;15.30;99.90
15991;DHT22;8100;50.994;4.538;2023-07-13T02:24:28;15.30;99.90
15991;DHT22;8100;50.994;4.538;2023-07-13T02:27:15;15.30;99.90
15991;DHT22;8100;50.994;4.538;2023-07-13T02:30:05;15.30;99.90
15991;DHT22;8100;50.994;4.538;2023-07-13T02:32:52;15.30;99.90
15991;DHT22;8100;50.994;4.538;2023-07-13T02:35:40;15.30;99.90
15991;DHT22;8100;50.994;4.538;2023-07-13T02:38:27;15.30;99.90
15991;DHT22;8100;50.994;4.538;2023-07-13T02:41:14;15.30;99.90
15991;DHT22;8100;50.994;4.538;2023-07-13T02:44:02;15.30;99.90
15991;DHT22;8100;50.994;4.538;2023-07-13T02:46:51;15.30;99.90
15991;DHT22;8100;50.994;4.538;2023-07-13T02:49:38;15.30;99.90
15991;DHT22;8100;50.994;4.538;2023-07-13T02:52:26;15.30;99.90
15991;DHT22;8100;50.994;4.538;2023-07-13T02:55:13;15.30;99.90
15991;DHT22;8100;50.994;4.538;2023-07-13T02:58:00;15.30;99.90
15991;DHT22;8100;50.994;4.538;2023-07-13T03:00:48;15.30;99.90
15991;DHT22;8100;50.994;4.538;2023-07-13T03:03:38;15.40;99.90
15991;DHT22;8100;50.994;4.538;2023-07-13T03:06:25;15.40;99.90
15991;DHT22;8100;50.994;4.538;2023-07-13T03:09:16;15.30;99.90
15991;DHT22;8100;50.994;4.538;2023-07-13T03:12:03;15.30;99.90
15991;DHT22;8100;50.994;4.538;2023-07-13T03:14:51;15.40;99.90
15991;DHT22;8100;50.994;4.538;2023-07-13T03:17:38;15.40;99.90
15991;DHT22;8100;50.994;4.538;2023-07-13T03:20:27;15.30;99.90
15991;DHT22;8100;50.994;4.538;2023-07-13T03:23:14;15.40;99.90
15991;DHT22;8100;50.994;4.538;2023-07-13T03:26:04;15.40;99.90
15991;DHT22;8100;50.994;4.538;2023-07-13T03:28:51;15.40;99.90
15991;DHT22;8100;50.994;4.538;2023-07-13T03:31:39;15.40;99.90
15991;DHT22;8100;50.994;4.538;2023-07-13T03:34:27;15.40;99.90
15991;DHT22;8100;50.994;4.538;2023-07-13T03:37:16;15.40;99.90
15991;DHT22;8100;50.994;4.538;2023-07-13T03:40:03;15.40;99.90
15991;DHT22;8100;50.994;4.538;2023-07-13T03:42:54;15.40;99.90
15991;DHT22;8100;50.994;4.538;2023-07-13T03:45:42;15.40;99.90
15991;DHT22;8100;50.994;4.538;2023-07-13T03:48:29;15.50;99.90
15991;DHT22;8100;50.994;4.538;2023-07-13T03:51:17;15.40;99.90
15991;DHT22;8100;50.994;4.538;2023-07-13T03:54:06;15.40;99.90
15991;DHT22;8100;50.994;4.538;2023-07-13T03:56:53;15.50;99.90
15991;DHT22;8100;50.994;4.538;2023-07-13T03:59:41;15.50;99.90
15991;DHT22;8100;50.994;4.538;2023-07-13T04:02:28;15.40;99.90
15991;DHT22;8100;50.994;4.538;2023-07-13T04:05:15;15.50;99.90
15991;DHT22;8100;50.994;4.538;2023-07-13T04:08:03;15.50;99.90
15991;DHT22;8100;50.994;4.538;2023-07-13T04:10:51;15.40;99.90
15991;DHT22;8100;50.994;4.538;2023-07-13T04:13:38;15.40;99.90
15991;DHT22;8100;50.994;4.538;2023-07-13T04:16:26;15.40;99.90
15991;DHT22;8100;50.994;4.538;2023-07-13T04:19:13;15.40;99.90
15991;DHT22;8100;50.994;4.538;2023-07-13T04:22:00;15.40;99.90
15991;DHT22;8100;50.994;4.538;2023-07-13T04:24:48;15.40;99.90
15991;DHT22;8100;50.994;4.538;2023-07-13T04:27:37;15.50;99.90
15991;DHT22;8100;50.994;4.538;2023-07-13T04:30:25;15.50;99.90
15991;DHT22;8100;50.994;4.538;2023-07-13T04:33:12;15.50;99.90
15991;DHT22;8100;50.994;4.538;2023-07-13T04:36:00;15.50;99.90
15991;DHT22;8100;50.994;4.538;2023-07-13T04:38:47;15.50;99.90
15991;DHT22;8100;50.994;4.538;2023-07-13T04:41:35;15.60;99.90
15991;DHT22;8100;50.994;4.538;2023-07-13T04:44:24;15.60;99.90
15991;DHT22;8100;50.994;4.538;2023-07-13T04:47:11;15.60;99.90
15991;DHT22;8100;50.994;4.538;2023-07-13T04:49:58;15.60;99.90
15991;DHT22;8100;50.994;4.538;2023-07-13T04:52:46;15.70;99.90
15991;DHT22;8100;50.994;4.538;2023-07-13T04:55:33;15.70;99.90
15991;DHT22;8100;50.994;4.538;2023-07-13T04:58:21;15.60;99.90
15991;DHT22;8100;50.994;4.538;2023-07-13T05:01:11;15.60;99.90
15991;DHT22;8100;50.994;4.538;2023-07-13T05:03:59;15.70;99.90
15991;DHT22;8100;50.994;4.538;2023-07-13T05:06:46;15.70;99.90
15991;DHT22;8100;50.994;4.538;2023-07-13T05:09:34;15.70;99.90
15991;DHT22;8100;50.994;4.538;2023-07-13T05:12:22;15.70;99.90
15991;DHT22;8100;50.994;4.538;2023-07-13T05:15:10;15.70;99.90
15991;DHT22;8100;50.994;4.538;2023-07-13T05:17:59;15.70;99.90
15991;DHT22;8100;50.994;4.538;2023-07-13T05:20:46;15.70;99.90
15991;DHT22;8100;50.994;4.538;2023-07-13T05:23:34;15.80;99.90
15991;DHT22;8100;50.994;4.538;2023-07-13T05:26:21;15.90;99.90
15991;DHT22;8100;50.994;4.538;2023-07-13T05:29:09;15.90;99.90
15991;DHT22;8100;50.994;4.538;2023-07-13T05:31:56;16.00;99.90
15991;DHT22;8100;50.994;4.538;2023-07-13T05:34:45;15.90;99.90
15991;DHT22;8100;50.994;4.538;2023-07-13T05:37:32;15.90;99.90
15991;DHT22;8100;50.994;4.538;2023-07-13T05:40:19;16.00;99.90
15991;DHT22;8100;50.994;4.538;2023-07-13T05:43:07;16.10;99.90
15991;DHT22;8100;50.994;4.538;2023-07-13T05:45:55;16.20;99.90
15991;DHT22;8100;50.994;4.538;2023-07-13T05:48:43;16.20;99.90
15991;DHT22;8100;50.994;4.538;2023-07-13T05:51:31;16.20;99.90
15991;DHT22;8100;50.994;4.538;2023-07-13T05:54:18;16.20;99.90
15991;DHT22;8100;50.994;4.538;2023-07-13T05:57:06;16.30;99.90
15991;DHT22;8100;50.994;4.538;2023-07-13T05:59:53;16.30;99.90
15991;DHT22;8100;50.994;4.538;2023-07-13T06:02:40;16.40;99.90
15991;DHT22;8100;50.994;4.538;2023-07-13T06:05:28;16.40;99.90
15991;DHT22;8100;50.994;4.538;2023-07-13T06:08:16;16.40;99.90
15991;DHT22;8100;50.994;4.538;2023-07-13T06:11:04;16.50;99.90
15991;DHT22;8100;50.994;4.538;2023-07-13T06:13:52;16.60;99.90
15991;DHT22;8100;50.994;4.538;2023-07-13T06:16:40;16.70;99.90
15991;DHT22;8100;50.994;4.538;2023-07-13T06:19:28;16.60;99.90
15991;DHT22;8100;50.994;4.538;2023-07-13T06:22:16;16.60;99.90
15991;DHT22;8100;50.994;4.538;2023-07-13T06:25:05;16.60;99.90
15991;DHT22;8100;50.994;4.538;2023-07-13T06:27:53;16.60;99.90
15991;DHT22;8100;50.994;4.538;2023-07-13T06:30:40;16.70;97.30
15991;DHT22;8100;50.994;4.538;2023-07-13T06:33:27;16.80;65.60
15991;DHT22;8100;50.994;4.538;2023-07-13T06:36:15;16.90;52.50
15991;DHT22;8100;50.994;4.538;2023-07-13T06:39:02;17.00;38.90
15991;DHT22;8100;50.994;4.538;2023-07-13T06:41:51;17.00;54.90
15991;DHT22;8100;50.994;4.538;2023-07-13T06:44:38;17.10;39.60
15991;DHT22;8100;50.994;4.538;2023-07-13T06:47:25;17.20;50.50
15991;DHT22;8100;50.994;4.538;2023-07-13T06:50:12;17.20;5.80
15991;DHT22;8100;50.994;4.538;2023-07-13T06:52:59;17.30;23.50
15991;DHT22;8100;50.994;4.538;2023-07-13T06:55:47;17.10;1.00
15991;DHT22;8100;50.994;4.538;2023-07-13T06:58:36;17.20;15.10
15991;DHT22;8100;50.994;4.538;2023-07-13T07:01:24;17.20;6.90
15991;DHT22;8100;50.994;4.538;2023-07-13T07:04:11;17.40;1.00
15991;DHT22;8100;50.994;4.538;2023-07-13T07:06:58;17.50;1.00
15991;DHT22;8100;50.994;4.538;2023-07-13T07:09:45;17.60;1.00
15991;DHT22;8100;50.994;4.538;2023-07-13T07:12:33;18.00;1.00
15991;DHT22;8100;50.994;4.538;2023-07-13T07:15:21;18.10;1.00
15991;DHT22;8100;50.994;4.538;2023-07-13T07:18:08;18.10;1.00
15991;DHT22;8100;50.994;4.538;2023-07-13T07:20:56;18.10;1.00
15991;DHT22;8100;50.994;4.538;2023-07-13T07:23:44;18.20;1.00
15991;DHT22;8100;50.994;4.538;2023-07-13T07:26:31;18.30;1.00
15991;DHT22;8100;50.994;4.538;2023-07-13T07:29:18;18.10;1.00
15991;DHT22;8100;50.994;4.538;2023-07-13T07:32:08;18.00;1.00
15991;DHT22;8100;50.994;4.538;2023-07-13T07:34:55;18.10;1.00
15991;DHT22;8100;50.994;4.538;2023-07-13T07:37:42;18.10;1.00
15991;DHT22;8100;50.994;4.538;2023-07-13T07:40:29;18.20;1.00
15991;DHT22;8100;50.994;4.538;2023-07-13T07:43:17;18.30;1.00
15991;DHT22;8100;50.994;4.538;2023-07-13T07:46:04;18.40;1.00
15991;DHT22;8100;50.994;4.538;2023-07-13T07:48:53;18.40;1.00
15991;DHT22;8100;50.994;4.538;2023-07-13T07:51:41;18.20;1.00
15991;DHT22;8100;50.994;4.538;2023-07-13T07:54:28;18.30;1.00
15991;DHT22;8100;50.994;4.538;2023-07-13T07:57:16;18.60;1.00
15991;DHT22;8100;50.994;4.538;2023-07-13T08:00:04;18.50;1.00
15991;DHT22;8100;50.994;4.538;2023-07-13T08:02:52;18.70;1.00
15991;DHT22;8100;50.994;4.538;2023-07-13T08:05:41;18.60;1.00
15991;DHT22;8100;50.994;4.538;2023-07-13T08:08:28;18.70;1.00
15991;DHT22;8100;50.994;4.538;2023-07-13T08:11:16;18.60;1.00
15991;DHT22;8100;50.994;4.538;2023-07-13T08:14:04;18.80;1.00
15991;DHT22;8100;50.994;4.538;2023-07-13T08:16:51;19.00;1.00
15991;DHT22;8100;50.994;4.538;2023-07-13T08:19:39;19.40;1.00
15991;DHT22;8100;50.994;4.538;2023-07-13T08:22:28;19.60;1.00
15991;DHT22;8100;50.994;4.538;2023-07-13T08:25:15;19.70;1.00
15991;DHT22;8100;50.994;4.538;2023-07-13T08:28:03;19.60;1.00
15991;DHT22;8100;50.994;4.538;2023-07-13T08:30:50;19.60;1.00
15991;DHT22;8100;50.994;4.538;2023-07-13T08:33:37;19.70;1.00
15991;DHT22;8100;50.994;4.538;2023-07-13T08:36:26;19.50;1.00
15991;DHT22;8100;50.994;4.538;2023-07-13T08:39:15;19.60;1.00
15991;DHT22;8100;50.994;4.538;2023-07-13T08:42:07;20.10;1.00
15991;DHT22;8100;50.994;4.538;2023-07-13T08:45:06;20.10;1.00
15991;DHT22;8100;50.994;4.538;2023-07-13T08:48:02;20.00;1.00
15991;DHT22;8100;50.994;4.538;2023-07-13T08:50:55;20.30;1.00
15991;DHT22;8100;50.994;4.538;2023-07-13T08:53:47;20.50;99.90
15991;DHT22;8100;50.994;4.538;2023-07-13T08:56:38;20.50;99.90
15991;DHT22;8100;50.994;4.538;2023-07-13T08:59:32;20.40;99.90
15991;DHT22;8100;50.994;4.538;2023-07-13T09:02:26;20.70;1.00
15991;DHT22;8100;50.994;4.538;2023-07-13T09:05:16;21.00;1.00
15991;DHT22;8100;50.994;4.538;2023-07-13T09:08:22;20.80;1.00
15991;DHT22;8100;50.994;4.538;2023-07-13T09:11:28;20.70;99.90
15991;DHT22;8100;50.994;4.538;2023-07-13T09:14:34;20.90;1.00
15991;DHT22;8100;50.994;4.538;2023-07-13T09:17:30;21.20;1.00
15991;DHT22;8100;50.994;4.538;2023-07-13T09:20:23;21.10;1.00
15991;DHT22;8100;50.994;4.538;2023-07-13T09:23:15;21.40;1.00
15991;DHT22;8100;50.994;4.538;2023-07-13T09:26:05;21.80;1.00
15991;DHT22;8100;50.994;4.538;2023-07-13T09:28:55;21.30;1.00
15991;DHT22;8100;50.994;4.538;2023-07-13T09:31:50;20.60;99.90
15991;DHT22;8100;50.994;4.538;2023-07-13T09:34:40;20.40;99.90
15991;DHT22;8100;50.994;4.538;2023-07-13T09:37:31;20.40;1.00
15991;DHT22;8100;50.994;4.538;2023-07-13T09:40:24;20.30;1.00
15991;DHT22;8100;50.994;4.538;2023-07-13T09:43:17;20.10;1.00
15991;DHT22;8100;50.994;4.538;2023-07-13T09:46:20;20.40;1.00
15991;DHT22;8100;50.994;4.538;2023-07-13T09:49:11;20.90;99.90
15991;DHT22;8100;50.994;4.538;2023-07-13T09:52:00;21.40;1.00
15991;DHT22;8100;50.994;4.538;2023-07-13T09:54:49;21.30;1.00
15991;DHT22;8100;50.994;4.538;2023-07-13T09:57:46;21.30;1.00
15991;DHT22;8100;50.994;4.538;2023-07-13T10:00:34;21.40;1.00
15991;DHT22;8100;50.994;4.538;2023-07-13T10:03:23;21.90;1.00
15991;DHT22;8100;50.994;4.538;2023-07-13T10:06:15;21.90;1.00
15991;DHT22;8100;50.994;4.538;2023-07-13T10:09:03;22.10;99.90
15991;DHT22;8100;50.994;4.538;2023-07-13T10:11:54;22.50;99.90
15991;DHT22;8100;50.994;4.538;2023-07-13T10:14:42;22.60;99.90
15991;DHT22;8100;50.994;4.538;2023-07-13T10:17:31;22.40;99.90
15991;DHT22;8100;50.994;4.538;2023-07-13T10:20:20;22.00;99.90
15991;DHT22;8100;50.994;4.538;2023-07-13T10:23:15;21.60;99.90
15991;DHT22;8100;50.994;4.538;2023-07-13T10:26:13;21.70;99.90
15991;DHT22;8100;50.994;4.538;2023-07-13T10:29:05;21.90;99.90
15991;DHT22;8100;50.994;4.538;2023-07-13T10:31:54;21.40;99.90
15991;DHT22;8100;50.994;4.538;2023-07-13T10:34:44;21.20;99.90
15991;DHT22;8100;50.994;4.538;2023-07-13T10:37:41;21.10;99.90
15991;DHT22;8100;50.994;4.538;2023-07-13T10:40:34;21.00;99.90
15991;DHT22;8100;50.994;4.538;2023-07-13T10:43:26;21.20;99.90
15991;DHT22;8100;50.994;4.538;2023-07-13T10:46:18;21.60;99.90
15991;DHT22;8100;50.994;4.538;2023-07-13T10:49:07;22.00;1.00
15991;DHT22;8100;50.994;4.538;2023-07-13T10:51:55;22.40;99.90
15991;DHT22;8100;50.994;4.538;2023-07-13T10:54:42;21.80;1.00
15991;DHT22;8100;50.994;4.538;2023-07-13T10:57:42;21.70;78.80
15991;DHT22;8100;50.994;4.538;2023-07-13T11:00:32;21.90;99.90
15991;DHT22;8100;50.994;4.538;2023-07-13T11:03:31;22.10;75.40
15991;DHT22;8100;50.994;4.538;2023-07-13T11:06:33;21.90;5.30
15991;DHT22;8100;50.994;4.538;2023-07-13T11:09:36;21.60;1.00
15991;DHT22;8100;50.994;4.538;2023-07-13T11:12:51;21.70;99.90
15991;DHT22;8100;50.994;4.538;2023-07-13T11:15:44;21.80;99.90
15991;DHT22;8100;50.994;4.538;2023-07-13T11:18:34;22.40;99.90
15991;DHT22;8100;50.994;4.538;2023-07-13T11:21:23;22.70;79.80
15991;DHT22;8100;50.994;4.538;2023-07-13T11:24:15;22.40;91.90
15991;DHT22;8100;50.994;4.538;2023-07-13T11:27:21;22.10;1.00
15991;DHT22;8100;50.994;4.538;2023-07-13T11:30:25;22.30;1.00
15991;DHT22;8100;50.994;4.538;2023-07-13T11:33:20;22.50;1.00
15991;DHT22;8100;50.994;4.538;2023-07-13T11:36:13;22.30;1.00
15991;DHT22;8100;50.994;4.538;2023-07-13T11:39:03;22.40;1.00
15991;DHT22;8100;50.994;4.538;2023-07-13T11:41:53;22.70;1.00
15991;DHT22;8100;50.994;4.538;2023-07-13T11:44:44;23.30;30.00
15991;DHT22;8100;50.994;4.538;2023-07-13T11:47:33;23.10;1.00
15991;DHT22;8100;50.994;4.538;2023-07-13T11:50:22;23.20;1.00
15991;DHT22;8100;50.994;4.538;2023-07-13T11:53:10;23.30;1.00
15991;DHT22;8100;50.994;4.538;2023-07-13T11:55:57;22.90;1.00
15991;DHT22;8100;50.994;4.538;2023-07-13T11:58:48;22.90;1.00
15991;DHT22;8100;50.994;4.538;2023-07-13T12:01:42;22.90;1.00
15991;DHT22;8100;50.994;4.538;2023-07-13T12:04:32;22.60;1.00
15991;DHT22;8100;50.994;4.538;2023-07-13T12:07:21;21.90;1.00
15991;DHT22;8100;50.994;4.538;2023-07-13T12:10:19;21.20;1.00
15991;DHT22;8100;50.994;4.538;2023-07-13T12:13:09;19.50;99.90
15991;DHT22;8100;50.994;4.538;2023-07-13T12:15:59;18.50;1.00
15991;DHT22;8100;50.994;4.538;2023-07-13T12:18:46;18.20;1.00
15991;DHT22;8100;50.994;4.538;2023-07-13T12:21:37;18.20;1.00
15991;DHT22;8100;50.994;4.538;2023-07-13T12:24:25;17.30;99.90
15991;DHT22;8100;50.994;4.538;2023-07-13T12:27:20;16.70;99.90
15991;DHT22;8100;50.994;4.538;2023-07-13T12:30:24;16.70;99.90
15991;DHT22;8100;50.994;4.538;2023-07-13T12:33:12;16.00;99.90
15991;DHT22;8100;50.994;4.538;2023-07-13T12:36:01;15.60;99.90
15991;DHT22;8100;50.994;4.538;2023-07-13T12:38:51;15.20;99.90
15991;DHT22;8100;50.994;4.538;2023-07-13T12:41:38;17.10;99.90
15991;DHT22;8100;50.994;4.538;2023-07-13T12:44:28;17.20;99.90
15991;DHT22;8100;50.994;4.538;2023-07-13T12:47:16;17.30;99.90
15991;DHT22;8100;50.994;4.538;2023-07-13T12:50:08;17.70;99.90
15991;DHT22;8100;50.994;4.538;2023-07-13T12:53:02;17.40;99.90
15991;DHT22;8100;50.994;4.538;2023-07-13T12:55:54;17.30;99.90
15991;DHT22;8100;50.994;4.538;2023-07-13T12:58:47;17.70;99.90
15991;DHT22;8100;50.994;4.538;2023-07-13T13:01:41;17.90;99.90
15991;DHT22;8100;50.994;4.538;2023-07-13T13:04:29;17.70;99.90
15991;DHT22;8100;50.994;4.538;2023-07-13T13:07:17;17.70;99.90
15991;DHT22;8100;50.994;4.538;2023-07-13T13:10:11;17.80;99.90
15991;DHT22;8100;50.994;4.538;2023-07-13T13:13:01;18.10;99.90
15991;DHT22;8100;50.994;4.538;2023-07-13T13:15:49;17.90;99.90
15991;DHT22;8100;50.994;4.538;2023-07-13T13:18:36;17.90;99.90
15991;DHT22;8100;50.994;4.538;2023-07-13T13:21:24;17.80;99.90
15991;DHT22;8100;50.994;4.538;2023-07-13T13:24:12;18.00;99.90
15991;DHT22;8100;50.994;4.538;2023-07-13T13:27:00;18.40;99.90
15991;DHT22;8100;50.994;4.538;2023-07-13T13:29:50;18.40;99.90
15991;DHT22;8100;50.994;4.538;2023-07-13T13:32:38;19.10;99.90
15991;DHT22;8100;50.994;4.538;2023-07-13T13:35:25;19.10;99.90
15991;DHT22;8100;50.994;4.538;2023-07-13T13:38:13;19.30;99.90
15991;DHT22;8100;50.994;4.538;2023-07-13T13:41:01;19.60;99.90
15991;DHT22;8100;50.994;4.538;2023-07-13T13:43:48;19.50;99.90
15991;DHT22;8100;50.994;4.538;2023-07-13T13:46:37;19.20;99.90
15991;DHT22;8100;50.994;4.538;2023-07-13T13:49:26;19.20;99.90
15991;DHT22;8100;50.994;4.538;2023-07-13T13:52:13;19.00;99.90
15991;DHT22;8100;50.994;4.538;2023-07-13T13:55:01;19.20;99.90
15991;DHT22;8100;50.994;4.538;2023-07-13T13:57:48;19.60;99.90
15991;DHT22;8100;50.994;4.538;2023-07-13T14:00:36;19.90;12.20
15991;DHT22;8100;50.994;4.538;2023-07-13T14:03:24;21.20;1.00
15991;DHT22;8100;50.994;4.538;2023-07-13T14:06:14;23.50;1.00
15991;DHT22;8100;50.994;4.538;2023-07-13T14:09:02;25.40;1.00
15991;DHT22;8100;50.994;4.538;2023-07-13T14:11:50;26.40;1.00
15991;DHT22;8100;50.994;4.538;2023-07-13T14:14:38;27.10;99.90
15991;DHT22;8100;50.994;4.538;2023-07-13T14:17:27;26.10;1.00
15991;DHT22;8100;50.994;4.538;2023-07-13T14:20:17;26.40;1.00
15991;DHT22;8100;50.994;4.538;2023-07-13T14:23:04;27.50;1.00
15991;DHT22;8100;50.994;4.538;2023-07-13T14:25:51;29.20;99.90
15991;DHT22;8100;50.994;4.538;2023-07-13T14:28:41;30.00;1.00
15991;DHT22;8100;50.994;4.538;2023-07-13T14:31:29;28.90;1.00
15991;DHT22;8100;50.994;4.538;2023-07-13T14:34:16;26.10;99.90
15991;DHT22;8100;50.994;4.538;2023-07-13T14:37:08;24.20;1.00
15991;DHT22;8100;50.994;4.538;2023-07-13T14:39:58;22.90;99.90
15991;DHT22;8100;50.994;4.538;2023-07-13T14:42:46;22.50;1.00
15991;DHT22;8100;50.994;4.538;2023-07-13T14:45:33;22.40;1.00
15991;DHT22;8100;50.994;4.538;2023-07-13T14:48:23;22.30;99.90
15991;DHT22;8100;50.994;4.538;2023-07-13T14:51:11;22.20;99.90
15991;DHT22;8100;50.994;4.538;2023-07-13T14:54:01;22.40;1.00
15991;DHT22;8100;50.994;4.538;2023-07-13T14:56:49;22.80;99.90
15991;DHT22;8100;50.994;4.538;2023-07-13T14:59:36;23.00;1.00
15991;DHT22;8100;50.994;4.538;2023-07-13T15:02:26;23.20;99.90
15991;DHT22;8100;50.994;4.538;2023-07-13T15:05:17;22.60;99.90
15991;DHT22;8100;50.994;4.538;2023-07-13T15:08:05;22.30;99.90
15991;DHT22;8100;50.994;4.538;2023-07-13T15:10:53;23.70;99.90
15991;DHT22;8100;50.994;4.538;2023-07-13T15:13:43;23.90;49.60
15991;DHT22;8100;50.994;4.538;2023-07-13T15:16:31;23.70;84.30
15991;DHT22;8100;50.994;4.538;2023-07-13T15:19:21;25.00;99.90
15991;DHT22;8100;50.994;4.538;2023-07-13T15:22:09;24.50;1.00
15991;DHT22;8100;50.994;4.538;2023-07-13T15:24:57;26.10;99.90
15991;DHT22;8100;50.994;4.538;2023-07-13T15:27:47;27.40;1.00
15991;DHT22;8100;50.994;4.538;2023-07-13T15:30:41;29.40;99.90
15991;DHT22;8100;50.994;4.538;2023-07-13T15:33:29;29.60;1.00
15991;DHT22;8100;50.994;4.538;2023-07-13T15:36:18;30.80;1.00
15991;DHT22;8100;50.994;4.538;2023-07-13T15:39:05;30.90;1.00
15991;DHT22;8100;50.994;4.538;2023-07-13T15:41:53;29.90;99.90
15991;DHT22;8100;50.994;4.538;2023-07-13T15:44:42;28.70;99.90
15991;DHT22;8100;50.994;4.538;2023-07-13T15:47:29;29.80;99.90
15991;DHT22;8100;50.994;4.538;2023-07-13T15:50:18;30.90;99.90
15991;DHT22;8100;50.994;4.538;2023-07-13T15:53:09;29.70;99.90
15991;DHT22;8100;50.994;4.538;2023-07-13T15:55:57;29.80;99.90
15991;DHT22;8100;50.994;4.538;2023-07-13T15:58:45;30.10;99.90
15991;DHT22;8100;50.994;4.538;2023-07-13T16:01:34;30.00;1.00
15991;DHT22;8100;50.994;4.538;2023-07-13T16:04:21;30.70;99.90
15991;DHT22;8100;50.994;4.538;2023-07-13T16:07:09;30.40;83.70
15991;DHT22;8100;50.994;4.538;2023-07-13T16:09:58;31.90;99.90
15991;DHT22;8100;50.994;4.538;2023-07-13T16:12:46;29.40;1.00
15991;DHT22;8100;50.994;4.538;2023-07-13T16:15:33;26.80;1.00
15991;DHT22;8100;50.994;4.538;2023-07-13T16:18:22;26.30;1.00
15991;DHT22;8100;50.994;4.538;2023-07-13T16:21:11;28.20;1.00
15991;DHT22;8100;50.994;4.538;2023-07-13T16:24:00;27.90;1.00
15991;DHT22;8100;50.994;4.538;2023-07-13T16:26:48;28.30;1.00
15991;DHT22;8100;50.994;4.538;2023-07-13T16:29:36;27.80;1.00
15991;DHT22;8100;50.994;4.538;2023-07-13T16:32:25;26.40;1.00
15991;DHT22;8100;50.994;4.538;2023-07-13T16:35:16;25.80;1.00
15991;DHT22;8100;50.994;4.538;2023-07-13T16:38:04;25.10;1.00
15991;DHT22;8100;50.994;4.538;2023-07-13T16:40:58;25.10;1.00
15991;DHT22;8100;50.994;4.538;2023-07-13T16:43:46;24.90;1.00
15991;DHT22;8100;50.994;4.538;2023-07-13T16:46:33;24.90;1.00
15991;DHT22;8100;50.994;4.538;2023-07-13T16:49:25;24.70;1.00
15991;DHT22;8100;50.994;4.538;2023-07-13T16:52:17;24.50;1.00
15991;DHT22;8100;50.994;4.538;2023-07-13T16:55:08;24.40;1.00
15991;DHT22;8100;50.994;4.538;2023-07-13T16:57:57;24.30;1.00
15991;DHT22;8100;50.994;4.538;2023-07-13T17:00:46;24.40;1.00
15991;DHT22;8100;50.994;4.538;2023-07-13T17:03:33;24.20;1.00
15991;DHT22;8100;50.994;4.538;2023-07-13T17:06:23;24.10;1.00
15991;DHT22;8100;50.994;4.538;2023-07-13T17:09:13;23.90;1.00
15991;DHT22;8100;50.994;4.538;2023-07-13T17:12:00;24.00;1.00
15991;DHT22;8100;50.994;4.538;2023-07-13T17:14:48;23.80;1.00
15991;DHT22;8100;50.994;4.538;2023-07-13T17:17:37;23.80;1.00
15991;DHT22;8100;50.994;4.538;2023-07-13T17:20:30;23.70;1.00
15991;DHT22;8100;50.994;4.538;2023-07-13T17:23:24;23.50;1.00
15991;DHT22;8100;50.994;4.538;2023-07-13T17:26:13;23.60;1.00
15991;DHT22;8100;50.994;4.538;2023-07-13T17:29:00;23.60;1.00
15991;DHT22;8100;50.994;4.538;2023-07-13T17:31:49;23.80;1.00
15991;DHT22;8100;50.994;4.538;2023-07-13T17:34:37;24.00;1.00
15991;DHT22;8100;50.994;4.538;2023-07-13T17:37:30;24.00;1.00
15991;DHT22;8100;50.994;4.538;2023-07-13T17:40:18;24.20;1.00
15991;DHT22;8100;50.994;4.538;2023-07-13T17:43:08;24.20;1.00
15991;DHT22;8100;50.994;4.538;2023-07-13T17:45:56;24.00;1.00
15991;DHT22;8100;50.994;4.538;2023-07-13T17:48:45;23.80;1.00
15991;DHT22;8100;50.994;4.538;2023-07-13T17:51:33;23.60;1.00
15991;DHT22;8100;50.994;4.538;2023-07-13T17:54:23;23.50;1.00
15991;DHT22;8100;50.994;4.538;2023-07-13T17:57:11;23.50;1.00
15991;DHT22;8100;50.994;4.538;2023-07-13T18:00:00;23.60;1.00
15991;DHT22;8100;50.994;4.538;2023-07-13T18:02:49;23.60;1.00
15991;DHT22;8100;50.994;4.538;2023-07-13T18:05:37;23.60;1.00
15991;DHT22;8100;50.994;4.538;2023-07-13T18:08:26;23.40;1.00
15991;DHT22;8100;50.994;4.538;2023-07-13T18:11:15;23.10;1.00
15991;DHT22;8100;50.994;4.538;2023-07-13T18:14:02;22.80;1.00